sensor_id;sensor_type;location;lat;lon;timestamp;pressure;altitude;pressure_sealevel;temperature;humidity
14273;BME280;7220;49.450;11.052;2022-08-03T00:01:50;98211.00;;;21.86;54.17
14273;BME280;7220;49.450;11.052;2022-08-03T00:05:50;98212.09;;;21.75;54.55
14273;BME280;7220;49.450;11.052;2022-08-03T00:09:51;98204.50;;;21.61;54.60
14273;BME280;7220;49.450;11.052;2022-08-03T00:13:52;98207.63;;;21.56;55.13
14273;BME280;7220;49.450;11.052;2022-08-03T00:17:52;98204.13;;;21.46;55.57
14273;BME280;7220;49.450;11.052;2022-08-03T00:21:53;98212.31;;;21.36;55.40
14273;BME280;7220;49.450;11.052;2022-08-03T00:25:53;98208.09;;;21.23;55.75
14273;BME280;7220;49.450;11.052;2022-08-03T00:29:54;98209.69;;;21.16;55.92
14273;BME280;7220;49.450;11.052;2022-08-03T00:33:54;98215.00;;;21.08;56.32
14273;BME280;7220;49.450;11.052;2022-08-03T00:37:55;98213.59;;;21.04;56.60
14273;BME280;7220;49.450;11.052;2022-08-03T00:41:56;98206.09;;;20.98;56.32
14273;BME280;7220;49.450;11.052;2022-08-03T00:45:56;98211.69;;;20.86;57.05
14273;BME280;7220;49.450;11.052;2022-08-03T00:49:58;98211.88;;;20.75;56.93
14273;BME280;7220;49.450;11.052;2022-08-03T00:53:58;98215.97;;;20.59;57.51
14273;BME280;7220;49.450;11.052;2022-08-03T00:57:59;98212.16;;;20.52;57.86
14273;BME280;7220;49.450;11.052;2022-08-03T01:02:04;98218.00;;;20.47;58.37
14273;BME280;7220;49.450;11.052;2022-08-03T01:06:21;98214.59;;;20.36;58.28
14273;BME280;7220;49.450;11.052;2022-08-03T01:14:54;98206.38;;;20.27;58.39
14273;BME280;7220;49.450;11.052;2022-08-03T01:19:19;98222.28;;;20.30;59.55
14273;BME280;7220;49.450;11.052;2022-08-03T01:27:53;98205.25;;;20.20;59.43
14273;BME280;7220;49.450;11.052;2022-08-03T01:32:11;98216.47;;;20.15;59.35
14273;BME280;7220;49.450;11.052;2022-08-03T01:36:15;98212.53;;;20.10;59.91
14273;BME280;7220;49.450;11.052;2022-08-03T01:40:18;98220.88;;;20.07;59.95
14273;BME280;7220;49.450;11.052;2022-08-03T01:44:20;98203.31;;;20.02;60.18
14273;BME280;7220;49.450;11.052;2022-08-03T01:48:22;98191.22;;;19.97;61.22
14273;BME280;7220;49.450;11.052;2022-08-03T01:52:23;98189.78;;;19.93;61.06
14273;BME280;7220;49.450;11.052;2022-08-03T01:56:26;98201.44;;;19.93;60.77
14273;BME280;7220;49.450;11.052;2022-08-03T02:00:28;98197.88;;;19.93;61.39
14273;BME280;7220;49.450;11.052;2022-08-03T02:04:30;98190.53;;;19.85;62.10
14273;BME280;7220;49.450;11.052;2022-08-03T02:08:32;98194.31;;;19.82;62.50
14273;BME280;7220;49.450;11.052;2022-08-03T02:12:33;98193.75;;;19.79;63.11
14273;BME280;7220;49.450;11.052;2022-08-03T02:16:36;98188.91;;;19.73;63.15
14273;BME280;7220;49.450;11.052;2022-08-03T02:20:37;98190.19;;;19.68;64.04
14273;BME280;7220;49.450;11.052;2022-08-03T02:24:39;98187.34;;;19.60;64.73
14273;BME280;7220;49.450;11.052;2022-08-03T02:28:42;98194.97;;;19.55;64.59
14273;BME280;7220;49.450;11.052;2022-08-03T02:32:54;98205.63;;;19.47;64.32
14273;BME280;7220;49.450;11.052;2022-08-03T02:36:57;98199.47;;;19.35;64.69
14273;BME280;7220;49.450;11.052;2022-08-03T02:41:00;98197.66;;;19.26;64.90
14273;BME280;7220;49.450;11.052;2022-08-03T02:45:05;98190.53;;;19.25;64.91
14273;BME280;7220;49.450;11.052;2022-08-03T02:49:07;98190.97;;;19.20;65.47
14273;BME280;7220;49.450;11.052;2022-08-03T04:15:46;98212.44;;;18.06;71.19
14273;BME280;7220;49.450;11.052;2022-08-03T04:19:49;98209.03;;;18.25;70.55
14273;BME280;7220;49.450;11.052;2022-08-03T04:23:55;98215.31;;;18.35;69.53
14273;BME280;7220;49.450;11.052;2022-08-03T04:27:58;98214.91;;;18.40;69.11
14273;BME280;7220;49.450;11.052;2022-08-03T04:32:00;98208.44;;;18.42;69.44
14273;BME280;7220;49.450;11.052;2022-08-03T04:36:03;98216.75;;;18.39;68.81
14273;BME280;7220;49.450;11.052;2022-08-03T04:40:09;98209.66;;;18.38;69.10
14273;BME280;7220;49.450;11.052;2022-08-03T04:44:10;98228.50;;;18.38;68.90
14273;BME280;7220;49.450;11.052;2022-08-03T04:48:13;98230.47;;;18.36;69.14
14273;BME280;7220;49.450;11.052;2022-08-03T04:52:14;98220.97;;;18.32;69.09
14273;BME280;7220;49.450;11.052;2022-08-03T04:56:14;98224.38;;;18.34;69.63
14273;BME280;7220;49.450;11.052;2022-08-03T05:00:15;98233.88;;;18.38;70.21
14273;BME280;7220;49.450;11.052;2022-08-03T05:04:16;98226.78;;;18.37;70.25
14273;BME280;7220;49.450;11.052;2022-08-03T05:08:17;98235.22;;;18.44;70.66
14273;BME280;7220;49.450;11.052;2022-08-03T05:12:17;98236.78;;;18.47;70.75
14273;BME280;7220;49.450;11.052;2022-08-03T05:16:18;98237.50;;;18.49;70.10
14273;BME280;7220;49.450;11.052;2022-08-03T05:20:18;98224.31;;;18.45;69.98
14273;BME280;7220;49.450;11.052;2022-08-03T05:24:19;98235.25;;;18.54;69.83
14273;BME280;7220;49.450;11.052;2022-08-03T05:28:19;98233.44;;;18.54;70.12
14273;BME280;7220;49.450;11.052;2022-08-03T05:32:20;98243.38;;;18.64;70.04
14273;BME280;7220;49.450;11.052;2022-08-03T05:36:21;98234.91;;;18.68;70.16
14273;BME280;7220;49.450;11.052;2022-08-03T05:40:21;98232.09;;;18.70;69.87
14273;BME280;7220;49.450;11.052;2022-08-03T05:44:22;98236.81;;;18.77;69.62
14273;BME280;7220;49.450;11.052;2022-08-03T05:48:24;98243.38;;;18.85;69.99
14273;BME280;7220;49.450;11.052;2022-08-03T05:52:25;98241.13;;;18.90;69.68
14273;BME280;7220;49.450;11.052;2022-08-03T05:56:25;98242.44;;;18.96;69.36
14273;BME280;7220;49.450;11.052;2022-08-03T06:00:25;98246.44;;;19.01;69.66
14273;BME280;7220;49.450;11.052;2022-08-03T06:04:26;98251.03;;;19.11;69.47
14273;BME280;7220;49.450;11.052;2022-08-03T06:08:27;98254.63;;;19.21;69.09
14273;BME280;7220;49.450;11.052;2022-08-03T06:12:29;98247.41;;;19.31;68.82
14273;BME280;7220;49.450;11.052;2022-08-03T06:16:29;98246.31;;;19.44;68.55
14273;BME280;7220;49.450;11.052;2022-08-03T06:20:30;98252.59;;;19.54;68.29
14273;BME280;7220;49.450;11.052;2022-08-03T06:24:31;98240.38;;;19.60;67.79
14273;BME280;7220;49.450;11.052;2022-08-03T06:28:32;98248.94;;;19.75;67.15
14273;BME280;7220;49.450;11.052;2022-08-03T06:32:32;98251.41;;;19.88;66.62
14273;BME280;7220;49.450;11.052;2022-08-03T06:36:33;98247.72;;;19.98;66.67
14273;BME280;7220;49.450;11.052;2022-08-03T06:40:35;98234.09;;;20.10;66.44
14273;BME280;7220;49.450;11.052;2022-08-03T06:44:39;98233.66;;;20.24;66.05
14273;BME280;7220;49.450;11.052;2022-08-03T06:48:39;98235.19;;;20.37;65.63
14273;BME280;7220;49.450;11.052;2022-08-03T06:52:40;98233.63;;;20.44;65.26
14273;BME280;7220;49.450;11.052;2022-08-03T06:56:40;98242.56;;;20.54;64.53
14273;BME280;7220;49.450;11.052;2022-08-03T07:00:40;98244.41;;;20.63;64.48
14273;BME280;7220;49.450;11.052;2022-08-03T07:04:41;98253.63;;;20.71;64.48
14273;BME280;7220;49.450;11.052;2022-08-03T07:08:41;98243.53;;;20.83;64.54
14273;BME280;7220;49.450;11.052;2022-08-03T07:12:42;98255.41;;;21.00;63.93
14273;BME280;7220;49.450;11.052;2022-08-03T07:16:42;98245.44;;;21.10;63.96
14273;BME280;7220;49.450;11.052;2022-08-03T07:20:43;98251.94;;;21.17;63.57
14273;BME280;7220;49.450;11.052;2022-08-03T07:24:43;98246.50;;;21.27;62.93
14273;BME280;7220;49.450;11.052;2022-08-03T07:28:44;98246.28;;;21.38;63.25
14273;BME280;7220;49.450;11.052;2022-08-03T07:32:45;98233.75;;;21.47;62.06
14273;BME280;7220;49.450;11.052;2022-08-03T07:36:45;98244.75;;;21.64;62.23
14273;BME280;7220;49.450;11.052;2022-08-03T07:40:46;98237.59;;;21.72;61.82
14273;BME280;7220;49.450;11.052;2022-08-03T07:44:46;98233.44;;;21.78;61.51
14273;BME280;7220;49.450;11.052;2022-08-03T07:48:47;98233.28;;;21.98;61.17
14273;BME280;7220;49.450;11.052;2022-08-03T07:52:48;98239.16;;;22.11;60.75
14273;BME280;7220;49.450;11.052;2022-08-03T07:56:49;98235.03;;;22.25;59.76
14273;BME280;7220;49.450;11.052;2022-08-03T08:00:49;98234.38;;;22.41;59.19
14273;BME280;7220;49.450;11.052;2022-08-03T08:04:52;98229.38;;;22.55;58.82
14273;BME280;7220;49.450;11.052;2022-08-03T08:08:52;98223.53;;;22.67;58.49
14273;BME280;7220;49.450;11.052;2022-08-03T08:12:55;98224.97;;;22.80;58.26
14273;BME280;7220;49.450;11.052;2022-08-03T08:16:55;98218.75;;;22.88;57.86
14273;BME280;7220;49.450;11.052;2022-08-03T08:20:56;98203.56;;;22.95;57.34
14273;BME280;7220;49.450;11.052;2022-08-03T08:24:58;98211.06;;;23.09;57.84
14273;BME280;7220;49.450;11.052;2022-08-03T08:28:59;98206.59;;;23.18;57.28
14273;BME280;7220;49.450;11.052;2022-08-03T08:32:59;98209.88;;;23.38;56.64
14273;BME280;7220;49.450;11.052;2022-08-03T08:37:00;98195.31;;;23.47;55.58
14273;BME280;7220;49.450;11.052;2022-08-03T08:41:01;98211.50;;;23.66;54.59
14273;BME280;7220;49.450;11.052;2022-08-03T08:45:02;98200.81;;;23.81;55.06
14273;BME280;7220;49.450;11.052;2022-08-03T08:49:07;98201.84;;;23.88;54.73
14273;BME280;7220;49.450;11.052;2022-08-03T08:53:11;98204.97;;;24.01;54.45
14273;BME280;7220;49.450;11.052;2022-08-03T08:57:14;98204.97;;;24.18;54.14
14273;BME280;7220;49.450;11.052;2022-08-03T09:01:19;98203.28;;;24.25;53.17
14273;BME280;7220;49.450;11.052;2022-08-03T09:05:21;98190.72;;;24.32;53.46
14273;BME280;7220;49.450;11.052;2022-08-03T09:09:21;98191.03;;;24.37;52.80
14273;BME280;7220;49.450;11.052;2022-08-03T09:13:22;98192.03;;;24.53;51.43
14273;BME280;7220;49.450;11.052;2022-08-03T09:17:22;98182.69;;;24.72;50.80
14273;BME280;7220;49.450;11.052;2022-08-03T09:21:26;98190.78;;;24.88;49.49
14273;BME280;7220;49.450;11.052;2022-08-03T09:25:34;98179.00;;;25.13;47.98
14273;BME280;7220;49.450;11.052;2022-08-03T09:29:36;98188.41;;;25.42;46.70
14273;BME280;7220;49.450;11.052;2022-08-03T09:33:46;98180.69;;;25.54;47.29
14273;BME280;7220;49.450;11.052;2022-08-03T09:38:07;98186.41;;;25.67;45.61
14273;BME280;7220;49.450;11.052;2022-08-03T09:42:16;98182.38;;;25.86;44.81
14273;BME280;7220;49.450;11.052;2022-08-03T09:46:17;98181.38;;;26.02;44.10
14273;BME280;7220;49.450;11.052;2022-08-03T09:50:17;98177.34;;;26.21;43.90
14273;BME280;7220;49.450;11.052;2022-08-03T09:54:31;98182.44;;;26.24;44.76
14273;BME280;7220;49.450;11.052;2022-08-03T09:58:31;98175.00;;;26.18;44.53
14273;BME280;7220;49.450;11.052;2022-08-03T10:02:32;98174.56;;;26.29;40.88
14273;BME280;7220;49.450;11.052;2022-08-03T10:06:32;98171.78;;;26.53;40.33
14273;BME280;7220;49.450;11.052;2022-08-03T10:10:42;98164.59;;;26.75;39.82
14273;BME280;7220;49.450;11.052;2022-08-03T10:14:43;98157.00;;;27.00;38.80
14273;BME280;7220;49.450;11.052;2022-08-03T10:18:46;98154.63;;;27.27;38.56
14273;BME280;7220;49.450;11.052;2022-08-03T10:22:47;98150.47;;;27.46;36.45
14273;BME280;7220;49.450;11.052;2022-08-03T10:26:48;98154.16;;;27.60;37.98
14273;BME280;7220;49.450;11.052;2022-08-03T10:30:52;98159.03;;;27.65;37.66
14273;BME280;7220;49.450;11.052;2022-08-03T10:35:03;98155.41;;;27.58;37.71
14273;BME280;7220;49.450;11.052;2022-08-03T10:39:04;98136.69;;;27.54;37.89
14273;BME280;7220;49.450;11.052;2022-08-03T10:43:19;98131.25;;;27.54;38.27
14273;BME280;7220;49.450;11.052;2022-08-03T10:47:21;98138.53;;;27.69;36.97
14273;BME280;7220;49.450;11.052;2022-08-03T10:51:22;98124.50;;;27.72;37.19
14273;BME280;7220;49.450;11.052;2022-08-03T10:55:36;98134.06;;;27.83;36.05
14273;BME280;7220;49.450;11.052;2022-08-03T10:59:57;98122.41;;;27.96;35.79
14273;BME280;7220;49.450;11.052;2022-08-03T11:12:24;98113.78;;;28.21;34.33
14273;BME280;7220;49.450;11.052;2022-08-03T11:16:26;98110.09;;;28.28;34.95
14273;BME280;7220;49.450;11.052;2022-08-03T11:20:46;98106.75;;;28.33;34.47
14273;BME280;7220;49.450;11.052;2022-08-03T11:28:50;98088.88;;;30.63;31.04
14273;BME280;7220;49.450;11.052;2022-08-03T11:32:53;98090.13;;;31.65;29.80
14273;BME280;7220;49.450;11.052;2022-08-03T11:37:17;98096.25;;;32.50;26.51
14273;BME280;7220;49.450;11.052;2022-08-03T11:41:32;98095.75;;;33.15;26.59
14273;BME280;7220;49.450;11.052;2022-08-03T11:45:34;98093.06;;;33.58;25.37
14273;BME280;7220;49.450;11.052;2022-08-03T11:49:36;98081.25;;;34.11;25.01
14273;BME280;7220;49.450;11.052;2022-08-03T11:53:38;98087.19;;;34.51;25.07
14273;BME280;7220;49.450;11.052;2022-08-03T11:57:40;98072.16;;;34.58;24.73
14273;BME280;7220;49.450;11.052;2022-08-03T12:01:41;98071.63;;;34.97;24.04
14273;BME280;7220;49.450;11.052;2022-08-03T12:05:49;98073.28;;;35.10;24.23
14273;BME280;7220;49.450;11.052;2022-08-03T12:10:06;98058.56;;;35.21;23.11
14273;BME280;7220;49.450;11.052;2022-08-03T12:14:07;98062.13;;;35.46;23.69
14273;BME280;7220;49.450;11.052;2022-08-03T12:18:15;98066.25;;;35.60;23.06
14273;BME280;7220;49.450;11.052;2022-08-03T12:22:30;98059.22;;;35.69;23.41
14273;BME280;7220;49.450;11.052;2022-08-03T12:26:45;98058.41;;;35.69;23.68
14273;BME280;7220;49.450;11.052;2022-08-03T12:30:48;98040.06;;;35.80;23.84
14273;BME280;7220;49.450;11.052;2022-08-03T12:34:49;98047.38;;;36.20;23.52
14273;BME280;7220;49.450;11.052;2022-08-03T12:38:55;98035.31;;;36.66;22.62
14273;BME280;7220;49.450;11.052;2022-08-03T12:42:57;98046.97;;;37.12;21.97
14273;BME280;7220;49.450;11.052;2022-08-03T12:46:58;98043.56;;;37.54;20.93
14273;BME280;7220;49.450;11.052;2022-08-03T12:51:09;98045.53;;;37.86;20.92
14273;BME280;7220;49.450;11.052;2022-08-03T12:55:18;98034.00;;;38.00;20.55
14273;BME280;7220;49.450;11.052;2022-08-03T12:59:23;98032.22;;;38.21;19.90
14273;BME280;7220;49.450;11.052;2022-08-03T13:03:24;98025.34;;;38.29;20.04
14273;BME280;7220;49.450;11.052;2022-08-03T13:07:25;98024.19;;;38.25;19.84
14273;BME280;7220;49.450;11.052;2022-08-03T13:11:26;98018.44;;;37.99;20.08
14273;BME280;7220;49.450;11.052;2022-08-03T13:15:27;98020.84;;;38.23;20.18
14273;BME280;7220;49.450;11.052;2022-08-03T13:19:30;98013.94;;;38.25;20.24
14273;BME280;7220;49.450;11.052;2022-08-03T13:23:31;98009.41;;;38.57;20.41
14273;BME280;7220;49.450;11.052;2022-08-03T13:27:31;98001.25;;;38.93;19.93
14273;BME280;7220;49.450;11.052;2022-08-03T13:31:32;98014.16;;;39.35;19.54
14273;BME280;7220;49.450;11.052;2022-08-03T13:35:32;98021.47;;;39.72;18.64
14273;BME280;7220;49.450;11.052;2022-08-03T13:39:33;98014.50;;;39.90;18.52
14273;BME280;7220;49.450;11.052;2022-08-03T13:43:33;98002.53;;;40.05;18.17
14273;BME280;7220;49.450;11.052;2022-08-03T13:47:33;98000.00;;;40.19;18.32
14273;BME280;7220;49.450;11.052;2022-08-03T13:51:34;97996.34;;;40.45;17.87
14273;BME280;7220;49.450;11.052;2022-08-03T13:55:34;97991.56;;;40.61;17.88
14273;BME280;7220;49.450;11.052;2022-08-03T13:59:35;97992.44;;;40.46;19.41
14273;BME280;7220;49.450;11.052;2022-08-03T14:03:35;98001.41;;;40.22;17.83
14273;BME280;7220;49.450;11.052;2022-08-03T14:07:36;97986.66;;;39.59;18.47
14273;BME280;7220;49.450;11.052;2022-08-03T14:11:36;97978.53;;;39.22;19.19
14273;BME280;7220;49.450;11.052;2022-08-03T14:15:37;97976.81;;;38.95;19.51
14273;BME280;7220;49.450;11.052;2022-08-03T14:19:37;97977.19;;;38.56;19.89
14273;BME280;7220;49.450;11.052;2022-08-03T14:23:38;97972.25;;;38.20;20.08
14273;BME280;7220;49.450;11.052;2022-08-03T14:27:39;97973.53;;;37.97;20.61
14273;BME280;7220;49.450;11.052;2022-08-03T14:31:39;97968.66;;;37.82;19.99
14273;BME280;7220;49.450;11.052;2022-08-03T14:35:39;97966.72;;;37.82;20.30
14273;BME280;7220;49.450;11.052;2022-08-03T14:39:40;97956.31;;;38.00;20.28
14273;BME280;7220;49.450;11.052;2022-08-03T14:43:40;97950.13;;;38.30;19.30
14273;BME280;7220;49.450;11.052;2022-08-03T14:47:41;97957.22;;;38.59;18.91
14273;BME280;7220;49.450;11.052;2022-08-03T14:51:41;97952.81;;;38.68;18.53
14273;BME280;7220;49.450;11.052;2022-08-03T14:55:42;97951.72;;;38.74;18.65
14273;BME280;7220;49.450;11.052;2022-08-03T14:59:43;97943.53;;;38.37;19.41
14273;BME280;7220;49.450;11.052;2022-08-03T15:03:43;97933.69;;;38.13;19.27
14273;BME280;7220;49.450;11.052;2022-08-03T15:07:45;97940.75;;;37.88;19.02
14273;BME280;7220;49.450;11.052;2022-08-03T15:11:46;97926.00;;;37.50;18.84
14273;BME280;7220;49.450;11.052;2022-08-03T15:15:47;97924.09;;;37.23;18.92
14273;BME280;7220;49.450;11.052;2022-08-03T15:19:47;97929.97;;;37.00;19.09
14273;BME280;7220;49.450;11.052;2022-08-03T15:23:48;97918.59;;;36.74;19.83
14273;BME280;7220;49.450;11.052;2022-08-03T15:27:48;97924.59;;;36.43;21.02
14273;BME280;7220;49.450;11.052;2022-08-03T15:31:49;97921.59;;;36.28;20.46
14273;BME280;7220;49.450;11.052;2022-08-03T15:35:49;97919.28;;;36.20;20.64
14273;BME280;7220;49.450;11.052;2022-08-03T15:39:50;97915.81;;;36.07;20.98
14273;BME280;7220;49.450;11.052;2022-08-03T15:43:50;97919.03;;;36.21;20.73
14273;BME280;7220;49.450;11.052;2022-08-03T15:47:51;97914.88;;;36.41;20.31
14273;BME280;7220;49.450;11.052;2022-08-03T15:51:52;97917.53;;;36.80;21.42
14273;BME280;7220;49.450;11.052;2022-08-03T15:55:52;97910.06;;;36.14;21.74
14273;BME280;7220;49.450;11.052;2022-08-03T15:59:53;97915.59;;;35.92;25.84
14273;BME280;7220;49.450;11.052;2022-08-03T16:03:53;97906.38;;;35.52;21.34
14273;BME280;7220;49.450;11.052;2022-08-03T16:07:54;97906.38;;;35.52;20.81
14273;BME280;7220;49.450;11.052;2022-08-03T16:11:54;97897.59;;;35.55;21.13
14273;BME280;7220;49.450;11.052;2022-08-03T16:15:54;97898.75;;;35.59;20.83
14273;BME280;7220;49.450;11.052;2022-08-03T16:19:56;97902.69;;;35.63;20.29
14273;BME280;7220;49.450;11.052;2022-08-03T16:23:56;97888.88;;;35.63;20.51
14273;BME280;7220;49.450;11.052;2022-08-03T16:27:57;97889.91;;;35.57;21.31
14273;BME280;7220;49.450;11.052;2022-08-03T16:31:57;97899.63;;;35.60;20.55
14273;BME280;7220;49.450;11.052;2022-08-03T16:35:58;97876.47;;;35.66;20.83
14273;BME280;7220;49.450;11.052;2022-08-03T16:39:59;97882.06;;;35.88;20.95
14273;BME280;7220;49.450;11.052;2022-08-03T16:44:00;97881.31;;;35.93;20.37
14273;BME280;7220;49.450;11.052;2022-08-03T16:48:00;97887.56;;;36.05;20.70
14273;BME280;7220;49.450;11.052;2022-08-03T16:52:01;97878.81;;;36.13;20.47
14273;BME280;7220;49.450;11.052;2022-08-03T16:56:01;97879.19;;;36.67;20.34
14273;BME280;7220;49.450;11.052;2022-08-03T17:00:03;97882.41;;;37.08;19.95
14273;BME280;7220;49.450;11.052;2022-08-03T17:04:03;97888.25;;;37.44;21.04
14273;BME280;7220;49.450;11.052;2022-08-03T17:08:04;97884.50;;;37.98;19.56
14273;BME280;7220;49.450;11.052;2022-08-03T17:12:06;97896.44;;;38.62;20.69
14273;BME280;7220;49.450;11.052;2022-08-03T17:16:07;97887.22;;;38.46;18.21
14273;BME280;7220;49.450;11.052;2022-08-03T17:20:13;97896.44;;;37.61;18.61
14273;BME280;7220;49.450;11.052;2022-08-03T17:24:22;97898.91;;;36.98;19.52
14273;BME280;7220;49.450;11.052;2022-08-03T17:28:27;97889.47;;;36.44;19.45
14273;BME280;7220;49.450;11.052;2022-08-03T17:32:34;97896.19;;;36.09;20.53
14273;BME280;7220;49.450;11.052;2022-08-03T17:36:36;97890.13;;;35.73;20.38
14273;BME280;7220;49.450;11.052;2022-08-03T17:40:38;97893.59;;;35.46;20.80
14273;BME280;7220;49.450;11.052;2022-08-03T17:44:39;97888.69;;;35.19;21.23
14273;BME280;7220;49.450;11.052;2022-08-03T17:48:41;97894.00;;;34.91;24.35
14273;BME280;7220;49.450;11.052;2022-08-03T17:52:45;97887.38;;;34.23;25.56
14273;BME280;7220;49.450;11.052;2022-08-03T17:56:58;97895.69;;;33.40;26.67
14273;BME280;7220;49.450;11.052;2022-08-03T18:01:03;97904.63;;;32.81;26.66
14273;BME280;7220;49.450;11.052;2022-08-03T18:05:24;97901.28;;;32.60;25.47
14273;BME280;7220;49.450;11.052;2022-08-03T18:09:27;97912.34;;;32.53;25.51
14273;BME280;7220;49.450;11.052;2022-08-03T18:17:53;97913.84;;;32.37;26.78
14273;BME280;7220;49.450;11.052;2022-08-03T18:21:54;97919.72;;;32.22;26.75
14273;BME280;7220;49.450;11.052;2022-08-03T18:25:55;97927.03;;;32.10;27.01
14273;BME280;7220;49.450;11.052;2022-08-03T18:29:57;97918.09;;;31.96;27.29
14273;BME280;7220;49.450;11.052;2022-08-03T18:33:58;97912.50;;;31.84;28.00
14273;BME280;7220;49.450;11.052;2022-08-03T18:38:02;97920.41;;;31.74;29.57
14273;BME280;7220;49.450;11.052;2022-08-03T18:42:04;97921.44;;;31.54;30.14
14273;BME280;7220;49.450;11.052;2022-08-03T18:46:26;97916.72;;;31.36;30.35
14273;BME280;7220;49.450;11.052;2022-08-03T18:50:36;97921.09;;;31.19;30.18
14273;BME280;7220;49.450;11.052;2022-08-03T18:55:07;97927.47;;;31.06;30.35
14273;BME280;7220;49.450;11.052;2022-08-03T18:59:14;97925.03;;;30.91;30.53
14273;BME280;7220;49.450;11.052;2022-08-03T19:03:23;97929.75;;;30.77;31.19
14273;BME280;7220;49.450;11.052;2022-08-03T19:07:25;97935.34;;;30.50;33.27
14273;BME280;7220;49.450;11.052;2022-08-03T19:11:39;97939.06;;;30.17;34.03
14273;BME280;7220;49.450;11.052;2022-08-03T19:15:41;97935.94;;;29.80;32.30
14273;BME280;7220;49.450;11.052;2022-08-03T19:19:43;97957.63;;;29.74;31.82
14273;BME280;7220;49.450;11.052;2022-08-03T19:23:49;97946.91;;;29.73;33.21
14273;BME280;7220;49.450;11.052;2022-08-03T19:27:50;97951.75;;;29.57;33.57
14273;BME280;7220;49.450;11.052;2022-08-03T19:31:52;97941.44;;;29.33;34.12
14273;BME280;7220;49.450;11.052;2022-08-03T19:35:54;97946.03;;;29.12;34.47
14273;BME280;7220;49.450;11.052;2022-08-03T19:39:55;97951.25;;;28.93;34.27
14273;BME280;7220;49.450;11.052;2022-08-03T19:43:59;97950.97;;;28.75;34.70
14273;BME280;7220;49.450;11.052;2022-08-03T19:48:10;97959.31;;;28.60;35.04
14273;BME280;7220;49.450;11.052;2022-08-03T19:52:13;97957.56;;;28.45;35.12
14273;BME280;7220;49.450;11.052;2022-08-03T19:56:14;97961.53;;;28.36;35.83
14273;BME280;7220;49.450;11.052;2022-08-03T20:00:17;97963.78;;;28.26;35.80
14273;BME280;7220;49.450;11.052;2022-08-03T20:04:19;97975.91;;;28.16;36.13
14273;BME280;7220;49.450;11.052;2022-08-03T20:08:20;97966.19;;;28.07;36.35
14273;BME280;7220;49.450;11.052;2022-08-03T20:12:21;97964.03;;;28.02;36.82
14273;BME280;7220;49.450;11.052;2022-08-03T20:16:21;97964.63;;;27.98;36.21
14273;BME280;7220;49.450;11.052;2022-08-03T20:20:25;97964.59;;;27.91;37.45
14273;BME280;7220;49.450;11.052;2022-08-03T20:24:28;97974.38;;;27.79;37.38
14273;BME280;7220;49.450;11.052;2022-08-03T20:32:32;97976.75;;;27.60;37.69
14273;BME280;7220;49.450;11.052;2022-08-03T20:36:33;97964.09;;;27.52;37.87
14273;BME280;7220;49.450;11.052;2022-08-03T20:40:34;97961.97;;;27.48;37.95
14273;BME280;7220;49.450;11.052;2022-08-03T20:44:35;97965.28;;;27.43;37.66
14273;BME280;7220;49.450;11.052;2022-08-03T20:48:36;97953.22;;;27.37;37.79
14273;BME280;7220;49.450;11.052;2022-08-03T20:52:38;97958.44;;;27.32;37.46
14273;BME280;7220;49.450;11.052;2022-08-03T20:56:42;97963.25;;;27.30;37.50
14273;BME280;7220;49.450;11.052;2022-08-03T21:00:45;97965.94;;;27.23;36.83
14273;BME280;7220;49.450;11.052;2022-08-03T21:04:45;97969.28;;;27.26;36.49
14273;BME280;7220;49.450;11.052;2022-08-03T21:08:48;97965.50;;;27.27;35.88
14273;BME280;7220;49.450;11.052;2022-08-03T21:12:54;97967.88;;;27.30;36.76
14273;BME280;7220;49.450;11.052;2022-08-03T21:17:00;97958.78;;;27.22;37.19
14273;BME280;7220;49.450;11.052;2022-08-03T21:21:02;97969.63;;;27.16;37.54
14273;BME280;7220;49.450;11.052;2022-08-03T21:25:04;97970.59;;;27.08;37.37
14273;BME280;7220;49.450;11.052;2022-08-03T21:29:06;97969.41;;;26.96;37.27
14273;BME280;7220;49.450;11.052;2022-08-03T21:33:07;97971.47;;;26.93;36.91
14273;BME280;7220;49.450;11.052;2022-08-03T21:37:08;97969.31;;;26.89;36.98
14273;BME280;7220;49.450;11.052;2022-08-03T21:41:11;97964.84;;;26.81;37.02
14273;BME280;7220;49.450;11.052;2022-08-03T21:45:12;97975.09;;;26.79;36.54
14273;BME280;7220;49.450;11.052;2022-08-03T21:49:13;97975.84;;;26.73;37.05
14273;BME280;7220;49.450;11.052;2022-08-03T21:53:13;97985.06;;;26.72;37.21
14273;BME280;7220;49.450;11.052;2022-08-03T21:57:19;97967.78;;;26.65;37.69
14273;BME280;7220;49.450;11.052;2022-08-03T22:01:24;97979.03;;;26.61;37.55
14273;BME280;7220;49.450;11.052;2022-08-03T22:05:26;97973.34;;;26.56;37.12
14273;BME280;7220;49.450;11.052;2022-08-03T22:09:27;97980.69;;;26.56;37.51
14273;BME280;7220;49.450;11.052;2022-08-03T22:13:29;97974.75;;;26.52;37.54
14273;BME280;7220;49.450;11.052;2022-08-03T22:17:32;97968.00;;;26.48;37.58
14273;BME280;7220;49.450;11.052;2022-08-03T22:21:33;97972.31;;;26.42;37.75
14273;BME280;7220;49.450;11.052;2022-08-03T22:25:37;97977.97;;;26.41;37.55
14273;BME280;7220;49.450;11.052;2022-08-03T22:29:41;97980.41;;;26.36;37.52
14273;BME280;7220;49.450;11.052;2022-08-03T22:33:46;97988.97;;;26.33;37.30
14273;BME280;7220;49.450;11.052;2022-08-03T22:37:48;97987.00;;;26.26;37.42
14273;BME280;7220;49.450;11.052;2022-08-03T22:41:50;97983.81;;;26.23;37.79
14273;BME280;7220;49.450;11.052;2022-08-03T22:45:52;97987.72;;;26.20;37.40
14273;BME280;7220;49.450;11.052;2022-08-03T22:49:54;97995.63;;;26.15;37.65
14273;BME280;7220;49.450;11.052;2022-08-03T22:53:56;97979.66;;;26.12;38.07
14273;BME280;7220;49.450;11.052;2022-08-03T22:57:56;97997.22;;;26.09;38.23
14273;BME280;7220;49.450;11.052;2022-08-03T23:02:06;97990.44;;;26.05;38.49
14273;BME280;7220;49.450;11.052;2022-08-03T23:06:08;98006.31;;;26.02;38.08
14273;BME280;7220;49.450;11.052;2022-08-03T23:10:11;98004.13;;;25.97;38.06
14273;BME280;7220;49.450;11.052;2022-08-03T23:14:15;98001.28;;;25.90;38.23
14273;BME280;7220;49.450;11.052;2022-08-03T23:18:17;98009.84;;;25.87;37.92